Terminal Aerodrome Forecast
Issued by NWS

Home | Current Version | Previous Version | Text Only | Print | Product List | Glossary On
Versions: 1 2 3 4 5 6 7 8 9 10 11 12 13 14
000
FTUS46 KSEW 190500
TAFBFI
TAF
KBFI 190520Z 1906/2006 14008KT P6SM -RA OVC050
     FM190900 18010G18KT P6SM -SHRA BKN025 BKN040
     FM192000 18008KT P6SM VCSH SCT020 BKN035=

USA.gov is the U.S. government's official web portal to all federal, state and local government web resources and services.